createdAt,value
2022-11-15T04:46:08.177Z,5.80
2022-11-15T04:48:34.851Z,5.70
2022-11-15T04:51:01.572Z,5.70
2022-11-15T04:53:28.452Z,5.70
2022-11-15T04:55:55.269Z,5.60
2022-11-15T04:58:22.006Z,5.60
2022-11-15T05:00:48.795Z,5.60
2022-11-15T05:03:34.434Z,5.70
2022-11-15T05:06:01.348Z,5.60
2022-11-15T05:08:28.631Z,5.60
2022-11-15T05:10:55.397Z,5.60
2022-11-15T05:13:23.486Z,5.50
2022-11-15T05:15:50.357Z,5.40
2022-11-15T05:18:22.152Z,5.40
2022-11-15T05:20:50.160Z,5.40
2022-11-15T05:23:16.842Z,5.30
2022-11-15T05:25:43.696Z,5.30
2022-11-15T05:28:10.408Z,5.30
2022-11-15T05:30:37.132Z,5.10
2022-11-15T05:33:04.306Z,5.00
2022-11-15T05:35:41.036Z,5.00
2022-11-15T05:38:08.529Z,5.10
2022-11-15T05:40:36.344Z,5.10
2022-11-15T05:43:04.655Z,5.10
2022-11-15T05:45:34.272Z,5.00
2022-11-15T05:48:04.861Z,5.00
2022-11-15T05:50:32.479Z,5.10
2022-11-15T05:53:03.741Z,5.10
2022-11-15T05:55:32.577Z,5.10
2022-11-15T05:57:59.460Z,5.20
2022-11-15T06:00:26.165Z,5.20
2022-11-15T06:02:52.865Z,5.30
2022-11-15T06:05:19.530Z,5.30
2022-11-15T06:07:46.231Z,5.40
2022-11-15T06:10:12.984Z,5.40
2022-11-15T06:12:39.722Z,5.40
2022-11-15T06:15:06.918Z,5.50
2022-11-15T06:17:33.670Z,5.50
2022-11-15T06:20:00.358Z,5.50
2022-11-15T06:22:27.081Z,5.50
2022-11-15T06:24:53.766Z,5.50
2022-11-15T06:27:20.498Z,5.50
2022-11-15T06:29:47.168Z,5.50
2022-11-15T06:32:13.848Z,5.60
2022-11-15T06:34:40.529Z,5.70
2022-11-15T06:37:07.226Z,5.60
2022-11-15T06:39:33.921Z,5.70
2022-11-15T06:42:00.579Z,5.80
2022-11-15T06:44:27.309Z,5.90
2022-11-15T06:46:53.990Z,5.90
2022-11-15T06:49:20.674Z,5.90
2022-11-15T06:51:47.377Z,5.90
2022-11-15T06:54:14.082Z,6.00
2022-11-15T06:56:40.795Z,6.00
2022-11-15T06:59:07.521Z,6.10
2022-11-15T07:01:34.306Z,6.20
2022-11-15T07:04:01.106Z,6.20
2022-11-15T07:06:27.894Z,6.30
2022-11-15T07:08:54.648Z,6.40
2022-11-15T07:11:21.325Z,6.50
2022-11-15T07:13:48.054Z,6.60
2022-11-15T07:16:14.839Z,6.70
2022-11-15T07:18:41.750Z,6.80
2022-11-15T07:21:10.610Z,6.90
2022-11-15T07:23:39.125Z,7.10
2022-11-15T07:26:06.585Z,7.30
2022-11-15T07:28:33.839Z,7.40
2022-11-15T07:31:04.534Z,7.60
2022-11-15T07:33:31.951Z,7.80
2022-11-15T07:36:03.690Z,8.00
2022-11-15T07:38:31.061Z,8.10
2022-11-15T07:41:02.862Z,8.20
2022-11-15T07:43:30.751Z,8.30
2022-11-15T07:45:59.608Z,8.30
2022-11-15T07:48:32.142Z,8.30
2022-11-15T07:51:14.364Z,8.30
2022-11-15T07:53:42.088Z,8.30
2022-11-15T07:56:09.613Z,8.20
2022-11-15T07:58:37.264Z,8.30
2022-11-15T08:01:06.213Z,8.30
2022-11-15T08:03:34.468Z,8.50
2022-11-15T08:06:01.697Z,8.60
2022-11-15T08:08:28.616Z,8.80
2022-11-15T08:10:55.335Z,8.80
2022-11-15T08:13:22.298Z,8.90
2022-11-15T08:15:53.446Z,8.90
2022-11-15T08:18:23.082Z,9.00
2022-11-15T08:20:49.854Z,9.20
2022-11-15T08:23:16.662Z,9.30
2022-11-15T08:25:43.514Z,9.50
2022-11-15T08:28:11.723Z,9.80
2022-11-15T08:30:42.886Z,10.00
2022-11-15T08:33:15.232Z,10.00
2022-11-15T08:35:43.692Z,10.10
2022-11-15T08:38:10.653Z,10.10
2022-11-15T08:40:38.051Z,10.00
2022-11-15T08:43:05.034Z,10.10
2022-11-15T08:45:32.500Z,10.20
2022-11-15T08:48:02.849Z,10.40
2022-11-15T08:50:29.575Z,10.50
2022-11-15T08:52:56.320Z,10.70
2022-11-15T08:55:24.838Z,11.00
2022-11-15T08:57:51.963Z,12.00
2022-11-15T09:00:20.915Z,13.10
2022-11-15T09:02:47.805Z,14.20
2022-11-15T09:05:16.061Z,15.40
2022-11-15T09:07:42.780Z,16.50
2022-11-15T09:10:09.759Z,17.40
2022-11-15T09:12:36.577Z,18.10
2022-11-15T09:15:03.998Z,18.00
2022-11-15T09:17:30.775Z,17.50
2022-11-15T09:19:57.536Z,17.20
2022-11-15T09:22:24.354Z,17.00
2022-11-15T09:24:51.098Z,17.10
2022-11-15T09:27:17.773Z,17.70
2022-11-15T09:29:44.509Z,18.70
2022-11-15T09:32:11.180Z,19.60
2022-11-15T09:34:37.885Z,20.30
2022-11-15T09:37:04.567Z,21.00
2022-11-15T09:39:31.243Z,21.50
2022-11-15T09:42:14.552Z,21.40
2022-11-15T09:45:07.415Z,21.70
2022-11-15T09:47:40.130Z,21.40
2022-11-15T09:50:18.716Z,20.30
2022-11-15T09:52:46.783Z,19.40
2022-11-15T09:55:22.253Z,18.60
2022-11-15T09:58:01.397Z,17.80
2022-11-15T10:00:46.972Z,16.70
2022-11-15T10:03:24.792Z,15.00
2022-11-15T10:05:55.421Z,14.30
2022-11-15T10:08:48.563Z,13.90
2022-11-15T10:11:37.265Z,13.50
2022-11-15T10:14:20.656Z,13.10
2022-11-15T10:17:06.655Z,12.70
2022-11-15T10:19:51.236Z,12.50
2022-11-15T10:22:38.876Z,12.40
2022-11-15T10:25:13.305Z,12.50
2022-11-15T10:27:42.165Z,12.60
2022-11-15T10:30:15.308Z,12.30
2022-11-15T10:32:44.511Z,12.30
2022-11-15T10:35:31.800Z,12.30
2022-11-15T10:38:09.798Z,12.60
2022-11-15T10:40:37.445Z,12.70
2022-11-15T10:43:10.321Z,12.70
2022-11-15T10:45:38.192Z,12.70
2022-11-15T10:48:13.874Z,12.50
2022-11-15T10:50:43.286Z,12.50
2022-11-15T10:53:33.314Z,12.40
2022-11-15T10:56:06.377Z,12.40
2022-11-15T10:58:51.861Z,12.30
2022-11-15T11:01:23.700Z,12.20
2022-11-15T11:04:04.247Z,12.20
2022-11-15T11:06:31.266Z,12.20
2022-11-15T11:09:06.522Z,12.10
2022-11-15T11:11:47.141Z,12.00
2022-11-15T11:14:31.853Z,11.90
2022-11-15T11:17:23.624Z,11.80
2022-11-15T11:20:11.132Z,11.80
2022-11-15T11:22:59.636Z,11.70
2022-11-15T11:25:45.802Z,11.60
2022-11-15T11:28:45.113Z,11.50
2022-11-15T11:31:38.966Z,11.50
2022-11-15T11:34:30.744Z,11.50
2022-11-15T11:37:10.629Z,11.40
2022-11-15T11:39:52.428Z,11.50
2022-11-15T11:42:59.037Z,11.60
2022-11-15T11:45:56.518Z,11.70
2022-11-15T11:48:45.028Z,11.70
2022-11-15T11:51:19.910Z,11.80
2022-11-15T11:54:07.017Z,11.90
2022-11-15T11:56:37.333Z,11.90
2022-11-15T11:59:25.371Z,12.00
2022-11-15T12:01:52.482Z,11.80
2022-11-15T12:04:41.531Z,11.70
2022-11-15T12:07:22.556Z,11.60
2022-11-15T12:10:06.811Z,11.50
2022-11-15T12:12:44.436Z,11.50
2022-11-15T12:15:11.237Z,11.60
2022-11-15T12:17:41.216Z,11.60
2022-11-15T12:20:34.777Z,11.50
2022-11-15T12:23:14.826Z,11.50
2022-11-15T12:26:02.958Z,11.40
2022-11-15T12:29:07.449Z,11.40
2022-11-15T12:31:57.881Z,11.30
2022-11-15T12:34:58.236Z,11.30
2022-11-15T12:37:34.149Z,11.30
2022-11-15T12:40:21.753Z,11.30
2022-11-15T12:43:28.770Z,11.30
2022-11-15T12:45:55.527Z,11.30
2022-11-15T12:48:37.615Z,11.40
2022-11-15T12:51:04.905Z,11.30
2022-11-15T12:53:33.797Z,11.20
2022-11-15T12:56:18.720Z,11.20
2022-11-15T12:58:56.791Z,11.40
2022-11-15T13:01:35.010Z,11.30
2022-11-15T13:04:20.090Z,11.20
2022-11-15T13:06:49.987Z,11.10
2022-11-15T13:09:34.908Z,11.10
2022-11-15T13:12:03.436Z,11.10
2022-11-15T13:14:40.832Z,11.10
2022-11-15T13:17:28.302Z,11.10
2022-11-15T13:20:01.839Z,11.00
2022-11-15T13:22:48.010Z,10.90
2022-11-15T13:25:29.388Z,10.90
2022-11-15T13:27:59.600Z,10.80
2022-11-15T13:30:31.352Z,10.80
2022-11-15T13:33:08.571Z,10.90
2022-11-15T13:35:40.278Z,10.90
2022-11-15T13:38:07.500Z,11.00
2022-11-15T13:40:38.524Z,11.00
2022-11-15T13:43:37.579Z,11.10
2022-11-15T13:46:18.944Z,11.10
2022-11-15T13:48:47.867Z,11.20
2022-11-15T13:51:42.858Z,11.10
2022-11-15T13:54:27.877Z,11.20
2022-11-15T13:57:01.705Z,11.20
2022-11-15T13:59:56.002Z,11.10
2022-11-15T14:02:28.240Z,11.20
2022-11-15T14:05:00.081Z,11.10
2022-11-15T14:07:29.732Z,11.00
2022-11-15T14:09:57.067Z,11.00
2022-11-15T14:12:33.934Z,11.00
2022-11-15T14:15:20.249Z,11.00
2022-11-15T14:17:50.034Z,10.90
2022-11-15T14:20:31.754Z,10.90
2022-11-15T14:23:19.343Z,10.90
2022-11-15T14:25:55.344Z,11.00
2022-11-15T14:28:25.077Z,10.90
2022-11-15T14:30:57.671Z,10.90
2022-11-15T14:33:40.432Z,10.80
2022-11-15T14:36:21.543Z,10.70
2022-11-15T14:38:49.252Z,10.60
2022-11-15T14:41:23.262Z,10.50
2022-11-15T14:43:51.439Z,10.50
2022-11-15T14:46:18.558Z,10.60
2022-11-15T14:48:45.434Z,10.70
2022-11-15T14:51:17.797Z,10.70
2022-11-15T14:53:45.712Z,10.70
2022-11-15T14:56:13.025Z,10.80
2022-11-15T14:58:40.013Z,10.80
2022-11-15T15:01:22.072Z,10.80
2022-11-15T15:03:48.853Z,10.80
2022-11-15T15:06:18.230Z,10.70
2022-11-15T15:08:46.586Z,10.70
2022-11-15T15:11:23.620Z,10.70
2022-11-15T15:13:50.646Z,10.70
2022-11-15T15:16:17.350Z,10.70
2022-11-15T15:18:44.421Z,10.60
2022-11-15T15:21:36.871Z,10.60
2022-11-15T15:24:04.527Z,10.60
2022-11-15T15:26:34.650Z,10.50
2022-11-15T15:29:01.369Z,10.50
2022-11-15T15:31:28.082Z,10.40
2022-11-15T15:33:54.786Z,10.40
2022-11-15T15:36:21.624Z,10.40
2022-11-15T15:38:48.316Z,10.40
2022-11-15T15:41:16.716Z,10.40
2022-11-15T15:43:43.756Z,10.40
2022-11-15T15:46:15.748Z,10.40
2022-11-15T15:48:42.882Z,10.50
2022-11-15T15:51:16.995Z,10.40
2022-11-15T15:53:47.020Z,10.40
2022-11-15T15:56:13.716Z,10.40
2022-11-15T15:58:40.487Z,10.40
2022-11-15T16:01:07.255Z,10.40
2022-11-15T16:03:33.993Z,10.40
2022-11-15T16:06:00.711Z,10.40
2022-11-15T16:08:42.467Z,10.40
2022-11-15T16:11:17.627Z,10.30
2022-11-15T16:13:44.333Z,10.30
2022-11-15T16:16:14.390Z,10.30
2022-11-15T16:18:41.081Z,10.30
2022-11-15T16:21:09.324Z,10.30
2022-11-15T16:23:36.078Z,10.30
2022-11-15T16:26:04.327Z,10.20
2022-11-15T16:28:33.780Z,10.10
2022-11-15T16:31:01.894Z,10.00
2022-11-15T16:33:28.600Z,10.10
2022-11-15T16:35:55.301Z,10.00
2022-11-15T16:38:22.256Z,10.10
2022-11-15T16:40:49.188Z,10.10
2022-11-15T16:43:16.401Z,10.00
2022-11-15T16:45:43.232Z,10.10
2022-11-15T16:48:25.545Z,10.10
2022-11-15T16:50:56.863Z,10.10
2022-11-15T16:53:23.945Z,10.10
2022-11-15T16:55:50.765Z,10.00
2022-11-15T16:58:17.597Z,9.90
2022-11-15T17:00:44.563Z,9.90
2022-11-15T17:03:11.945Z,9.90
2022-11-15T17:05:38.740Z,9.90
2022-11-15T17:08:06.461Z,9.90
2022-11-15T17:10:33.424Z,9.80
2022-11-15T17:13:00.146Z,9.70
2022-11-15T17:15:26.895Z,9.70
2022-11-15T17:17:54.921Z,9.80
2022-11-15T17:20:24.459Z,9.90
2022-11-15T17:22:52.851Z,9.80
2022-11-15T17:25:20.666Z,9.90
2022-11-15T17:27:47.641Z,9.90
2022-11-15T17:30:15.516Z,9.90
2022-11-15T17:32:43.319Z,9.90
2022-11-15T17:37:45.559Z,10.00
2022-11-15T17:40:12.445Z,9.80
2022-11-15T17:42:41.483Z,9.90
2022-11-15T17:45:10.387Z,10.00
2022-11-15T17:47:37.604Z,9.90
2022-11-15T17:50:04.674Z,9.90
2022-11-15T17:52:31.445Z,9.90
2022-11-15T17:54:58.138Z,9.90
2022-11-15T17:57:24.841Z,9.90
2022-11-15T17:59:51.485Z,9.90
2022-11-15T18:02:19.357Z,10.00
2022-11-15T18:04:45.989Z,9.90
2022-11-15T18:07:14.051Z,9.90
2022-11-15T18:09:43.729Z,10.00
2022-11-15T18:12:11.236Z,10.00
2022-11-15T18:14:38.001Z,10.00
2022-11-15T18:17:04.652Z,10.00
2022-11-15T18:19:31.524Z,10.10
2022-11-15T18:22:00.185Z,10.00
2022-11-15T18:24:28.317Z,10.00
2022-11-15T18:26:55.469Z,10.10
2022-11-15T18:29:24.423Z,9.90
2022-11-15T18:31:55.374Z,9.90
2022-11-15T18:34:24.020Z,9.90
2022-11-15T18:36:53.692Z,9.90
2022-11-15T18:39:20.392Z,10.00
2022-11-15T18:41:47.385Z,10.10
2022-11-15T18:44:14.822Z,10.10
2022-11-15T18:46:42.030Z,10.10
2022-11-15T18:49:10.319Z,10.20
2022-11-15T18:51:41.487Z,10.20
2022-11-15T18:54:10.431Z,10.30
2022-11-15T18:56:37.756Z,10.30
2022-11-15T18:59:05.426Z,10.30
2022-11-15T19:01:34.544Z,10.20
2022-11-15T19:04:07.047Z,10.20
2022-11-15T19:06:38.204Z,10.20
2022-11-15T19:09:04.991Z,10.10
2022-11-15T19:11:35.649Z,10.00
2022-11-15T19:14:05.148Z,9.90
2022-11-15T19:16:37.192Z,9.80
2022-11-15T19:19:06.545Z,9.90
2022-11-15T19:21:34.317Z,9.90
2022-11-15T19:24:01.443Z,9.90
2022-11-15T19:26:28.911Z,9.90
2022-11-15T19:28:57.983Z,9.90
2022-11-15T19:31:26.748Z,9.90
2022-11-15T19:33:54.533Z,9.90
2022-11-15T19:36:29.246Z,9.90
2022-11-15T19:38:56.387Z,9.90
2022-11-15T19:41:24.479Z,9.70
2022-11-15T19:43:52.248Z,9.80
2022-11-15T19:46:23.666Z,9.70
2022-11-15T19:48:51.374Z,9.70
2022-11-15T19:51:23.421Z,9.70
2022-11-15T19:53:53.008Z,9.70
2022-11-15T19:56:21.311Z,9.60
2022-11-15T19:58:52.441Z,9.60
2022-11-15T20:01:21.623Z,9.70
2022-11-15T20:03:50.120Z,9.70
2022-11-15T20:06:22.149Z,9.70
2022-11-15T20:08:48.904Z,9.70
2022-11-15T20:11:16.691Z,9.70
2022-11-15T20:13:43.896Z,9.60
2022-11-15T20:16:21.884Z,9.70
2022-11-15T20:18:53.042Z,9.70
2022-11-15T20:21:20.503Z,9.70
2022-11-15T20:23:47.822Z,9.60
2022-11-15T20:26:15.822Z,9.60
2022-11-15T20:28:44.339Z,9.60
2022-11-15T20:31:11.977Z,9.60
2022-11-15T20:33:39.180Z,9.60
2022-11-15T20:36:07.994Z,9.70
2022-11-15T20:38:34.952Z,9.60
2022-11-15T20:41:01.861Z,9.60
2022-11-15T20:43:28.663Z,9.50
2022-11-15T20:45:55.655Z,9.60
2022-11-15T20:48:22.618Z,9.60
2022-11-15T20:50:49.453Z,9.60
2022-11-15T20:53:19.043Z,9.60
2022-11-15T20:55:48.280Z,9.50
2022-11-15T20:58:16.041Z,9.50
2022-11-15T21:00:44.666Z,9.60
2022-11-15T21:03:12.513Z,9.60
2022-11-15T21:05:41.297Z,9.70
2022-11-15T21:08:08.909Z,9.70
2022-11-15T21:10:54.108Z,9.70
2022-11-15T21:13:21.172Z,9.70
2022-11-15T21:15:47.975Z,9.60
2022-11-15T21:18:15.517Z,9.50
2022-11-15T21:20:42.414Z,9.50
2022-11-15T21:23:09.541Z,9.40
2022-11-15T21:25:36.325Z,9.40
2022-11-15T21:28:03.095Z,9.50
2022-11-15T21:30:30.430Z,9.40
2022-11-15T21:32:57.091Z,9.50
2022-11-15T21:35:23.901Z,9.60
2022-11-15T21:37:56.090Z,9.70
2022-11-15T21:40:23.618Z,9.80
2022-11-15T21:42:50.635Z,9.90
2022-11-15T21:45:17.364Z,10.00
2022-11-15T21:47:46.287Z,10.00
2022-11-15T21:50:13.881Z,10.00
2022-11-15T21:52:41.199Z,10.10
2022-11-15T21:55:08.869Z,10.20
2022-11-15T21:57:35.540Z,10.20
2022-11-15T22:00:22.900Z,10.20
2022-11-15T22:02:49.551Z,10.10
2022-11-15T22:05:16.348Z,10.10
2022-11-15T22:07:42.992Z,10.10
2022-11-15T22:10:09.821Z,10.10
2022-11-15T22:12:36.964Z,10.10
2022-11-15T22:15:03.925Z,10.10
2022-11-15T22:17:51.510Z,10.10
2022-11-15T22:20:46.337Z,10.00
2022-11-15T22:23:05.591Z,10.00
2022-11-15T22:25:32.797Z,9.90
2022-11-15T22:27:59.536Z,10.00
2022-11-15T22:30:26.281Z,10.00
2022-11-15T22:32:52.990Z,10.00
2022-11-15T22:35:19.656Z,9.90
2022-11-15T22:37:46.348Z,9.80
2022-11-15T22:40:13.144Z,9.80
2022-11-15T22:42:39.815Z,9.80
2022-11-15T22:45:06.968Z,9.90
2022-11-15T22:47:33.729Z,9.90
2022-11-15T22:50:00.556Z,9.90
2022-11-15T22:52:27.277Z,9.90
2022-11-15T22:54:54.000Z,9.90
2022-11-15T22:57:20.667Z,9.90
2022-11-15T22:59:47.428Z,9.70
2022-11-15T23:02:14.191Z,9.70
2022-11-15T23:04:41.047Z,9.80
2022-11-15T23:07:07.929Z,9.80
2022-11-15T23:09:34.696Z,9.90
2022-11-15T23:12:19.946Z,9.80
2022-11-15T23:14:46.752Z,9.80
2022-11-15T23:17:13.598Z,9.80
2022-11-15T23:19:40.400Z,9.80
2022-11-15T23:22:25.960Z,9.80
2022-11-15T23:24:53.252Z,9.80
2022-11-15T23:27:20.691Z,9.80
2022-11-15T23:30:06.451Z,9.90
2022-11-15T23:32:51.938Z,9.90
2022-11-15T23:35:18.837Z,9.80
2022-11-15T23:37:45.753Z,9.70
2022-11-15T23:40:12.764Z,9.70
2022-11-15T23:42:39.865Z,9.70
2022-11-15T23:45:06.977Z,9.70
2022-11-15T23:47:33.724Z,9.70
2022-11-15T23:50:00.460Z,9.80
2022-11-15T23:52:27.142Z,9.80
2022-11-15T23:54:53.821Z,9.80
2022-11-15T23:57:20.590Z,9.70
2022-11-15T23:59:47.705Z,9.70
